Time;durP1;ratioP1;P1;durP2;ratioP2;P2;SDS_P1;SDS_P2;PMS_P1;PMS_P2;Temp;Humidity;BMP_temperature;BMP_pressure;BME280_temperature;BME280_humidity;BME280_pressure;Samples;Min_cycle;Max_cycle;Signal;HPM_P1;HPM_P2
2023/05/23 00:00:25;;;;;;;14.00;8.60;;;16.20;99.90;;;;;;5103218;28;20059;-59
2023/05/23 00:02:51;;;;;;;17.40;10.13;;;16.20;99.90;;;;;;5104106;28;20028;-59
2023/05/23 00:05:17;;;;;;;18.40;10.82;;;16.10;99.90;;;;;;5107837;28;20362;-57
2023/05/23 00:07:45;;;;;;;17.70;10.60;;;16.10;99.90;;;;;;5107872;28;20039;-58
2023/05/23 00:10:13;;;;;;;22.50;11.30;;;16.00;99.90;;;;;;5106306;28;20023;-58
2023/05/23 00:12:41;;;;;;;17.83;12.02;;;16.00;99.90;;;;;;5105339;28;20170;-52
2023/05/23 00:15:07;;;;;;;18.08;12.40;;;16.00;99.90;;;;;;5104037;28;20095;-57
2023/05/23 00:17:35;;;;;;;17.58;12.02;;;15.90;99.90;;;;;;5109274;28;20054;-55
2023/05/23 00:20:01;;;;;;;16.90;11.93;;;15.90;99.90;;;;;;5110293;28;20107;-59
2023/05/23 00:22:27;;;;;;;19.83;13.75;;;15.90;99.90;;;;;;5109127;28;20434;-59
2023/05/23 00:24:52;;;;;;;23.00;13.02;;;15.80;99.90;;;;;;5107435;28;20036;-57
2023/05/23 00:27:18;;;;;;;17.00;12.10;;;15.80;99.90;;;;;;5107011;28;20039;-59
2023/05/23 00:29:43;;;;;;;18.63;13.30;;;15.80;99.90;;;;;;5105706;28;20564;-59
2023/05/23 00:32:09;;;;;;;18.55;14.00;;;15.70;99.90;;;;;;5105721;28;20031;-59
2023/05/23 00:34:35;;;;;;;17.80;12.65;;;15.70;99.90;;;;;;5105099;28;20040;-58
2023/05/23 00:37:01;;;;;;;21.90;13.50;;;15.70;99.90;;;;;;5106204;28;20022;-59
2023/05/23 00:39:26;;;;;;;20.00;14.00;;;15.60;99.90;;;;;;5101029;28;20040;-57
2023/05/23 00:41:52;;;;;;;21.65;14.10;;;15.60;99.90;;;;;;5106830;28;20110;-57
2023/05/23 00:44:18;;;;;;;22.10;13.88;;;15.60;99.90;;;;;;5108111;28;20028;-58
2023/05/23 00:46:48;;;;;;;27.08;14.93;;;15.60;99.90;;;;;;5110054;28;20023;-59
2023/05/23 00:49:14;;;;;;;23.33;14.25;;;15.60;99.90;;;;;;5107779;28;20126;-60
2023/05/23 00:51:41;;;;;;;22.33;14.38;;;15.50;99.90;;;;;;5107692;28;20520;-58
2023/05/23 00:54:08;;;;;;;19.67;14.25;;;15.50;99.90;;;;;;5108304;28;20020;-59
2023/05/23 00:56:34;;;;;;;21.98;15.30;;;15.50;99.90;;;;;;5107681;28;20052;-59
2023/05/23 00:59:00;;;;;;;24.63;14.80;;;15.50;99.90;;;;;;5099421;28;20029;-55
2023/05/23 01:01:26;;;;;;;23.92;16.10;;;15.60;99.90;;;;;;5106864;28;20024;-58
2023/05/23 01:03:52;;;;;;;25.52;15.90;;;15.50;99.90;;;;;;5110344;27;20122;-59
2023/05/23 01:06:17;;;;;;;23.10;14.90;;;15.60;99.90;;;;;;5106516;28;20036;-59
2023/05/23 01:08:43;;;;;;;23.48;14.70;;;15.60;99.90;;;;;;5103660;28;20042;-59
2023/05/23 01:11:34;;;;;;;23.67;15.00;;;15.60;99.90;;;;;;5109317;28;20020;-59
2023/05/23 01:14:06;;;;;;;29.75;15.55;;;15.70;99.90;;;;;;5105884;28;20110;-59
2023/05/23 01:16:47;;;;;;;23.10;15.07;;;15.70;99.90;;;;;;5104829;28;20094;-59
2023/05/23 01:19:47;;;;;;;21.92;15.23;;;15.70;99.90;;;;;;5098330;28;20023;-60
2023/05/23 01:22:52;;;;;;;27.65;15.18;;;15.80;99.90;;;;;;5105940;28;20031;-59
2023/05/23 01:25:32;;;;;;;24.10;14.80;;;15.80;99.90;;;;;;5069730;28;20040;-60
2023/05/23 01:28:02;;;;;;;21.73;13.38;;;15.80;99.90;;;;;;5106047;28;20054;-60
2023/05/23 01:30:31;;;;;;;26.23;15.00;;;15.80;99.90;;;;;;5104838;28;20505;-56
2023/05/23 01:32:57;;;;;;;25.27;15.30;;;15.90;99.90;;;;;;5105690;28;20032;-60
2023/05/23 01:35:27;;;;;;;25.38;16.48;;;15.90;99.90;;;;;;5106910;28;20157;-58
2023/05/23 01:37:54;;;;;;;24.83;16.52;;;15.90;99.90;;;;;;5106623;28;20024;-59
2023/05/23 01:40:23;;;;;;;26.73;16.83;;;15.90;99.90;;;;;;5103958;28;20106;-59
2023/05/23 01:42:50;;;;;;;26.85;17.38;;;15.90;99.90;;;;;;5105296;28;20115;-59
2023/05/23 01:45:16;;;;;;;29.40;16.70;;;15.90;99.90;;;;;;5103450;28;20039;-59
2023/05/23 01:47:43;;;;;;;24.27;15.82;;;15.90;99.90;;;;;;5103871;28;20035;-59
2023/05/23 01:50:10;;;;;;;27.08;16.60;;;15.90;99.90;;;;;;5107688;28;20377;-59
2023/05/23 01:52:35;;;;;;;25.85;14.90;;;15.80;99.90;;;;;;5105240;28;20027;-59
2023/05/23 01:55:08;;;;;;;22.40;13.55;;;15.80;99.90;;;;;;5105586;28;20396;-59
2023/05/23 01:57:36;;;;;;;19.75;12.32;;;15.80;99.90;;;;;;5104853;28;20023;-60
2023/05/23 02:00:06;;;;;;;15.55;10.23;;;15.80;99.90;;;;;;5102711;28;20118;-61
2023/05/23 02:02:33;;;;;;;11.27;8.35;;;15.80;99.90;;;;;;5106803;28;20964;-58
2023/05/23 02:04:59;;;;;;;10.38;7.53;;;15.80;99.90;;;;;;5106656;28;20046;-59
2023/05/23 02:07:25;;;;;;;10.10;7.40;;;15.70;99.90;;;;;;5105419;28;20457;-57
2023/05/23 02:09:50;;;;;;;11.38;7.03;;;15.70;99.90;;;;;;5105608;28;20034;-58
2023/05/23 02:12:16;;;;;;;11.43;6.63;;;15.70;99.90;;;;;;5102615;28;20030;-58
2023/05/23 02:14:41;;;;;;;7.75;6.05;;;15.70;99.90;;;;;;5107609;28;20031;-58
2023/05/23 02:17:10;;;;;;;10.38;6.45;;;15.70;99.90;;;;;;5109495;28;20036;-58
2023/05/23 02:19:36;;;;;;;8.05;5.85;;;15.70;99.90;;;;;;5102212;28;20077;-59
2023/05/23 02:22:02;;;;;;;8.57;6.35;;;15.60;99.90;;;;;;5105707;28;20028;-59
2023/05/23 02:24:28;;;;;;;9.45;6.22;;;15.60;99.90;;;;;;5103154;28;20036;-58
2023/05/23 02:26:54;;;;;;;7.63;5.38;;;15.60;99.90;;;;;;5106357;28;20574;-58
2023/05/23 02:29:19;;;;;;;8.13;5.60;;;15.70;99.90;;;;;;5107492;28;20020;-58
2023/05/23 02:31:45;;;;;;;7.82;5.60;;;15.70;99.90;;;;;;5106020;28;20024;-61
2023/05/23 02:34:10;;;;;;;10.15;5.43;;;15.70;99.90;;;;;;5105529;28;20023;-56
2023/05/23 02:36:36;;;;;;;7.82;5.45;;;15.60;99.90;;;;;;5102629;28;20038;-55
2023/05/23 02:39:03;;;;;;;11.88;6.32;;;15.60;99.90;;;;;;5101451;28;20035;-59
2023/05/23 02:41:29;;;;;;;9.45;5.65;;;15.60;99.90;;;;;;5105141;28;20504;-59
2023/05/23 02:43:54;;;;;;;11.88;5.95;;;15.60;99.90;;;;;;5107740;28;20066;-59
2023/05/23 02:46:20;;;;;;;9.13;5.68;;;15.60;99.90;;;;;;5107919;28;20035;-58
2023/05/23 02:48:45;;;;;;;8.52;5.70;;;15.70;99.90;;;;;;5104896;28;20031;-59
2023/05/23 02:51:12;;;;;;;8.48;5.60;;;15.70;99.90;;;;;;5107534;28;20016;-60
2023/05/23 02:53:38;;;;;;;8.73;5.47;;;15.60;99.90;;;;;;5108676;28;20403;-58
2023/05/23 02:56:04;;;;;;;9.27;5.80;;;15.60;99.90;;;;;;5108296;28;20027;-59
2023/05/23 02:58:30;;;;;;;8.75;6.03;;;15.60;99.90;;;;;;5108968;28;20180;-58
2023/05/23 03:00:56;;;;;;;14.73;5.78;;;15.60;99.90;;;;;;5110596;28;20055;-57
2023/05/23 03:03:21;;;;;;;9.07;5.97;;;15.60;99.90;;;;;;5107565;28;20512;-59
2023/05/23 03:05:47;;;;;;;7.80;5.90;;;15.60;99.90;;;;;;5109399;28;20032;-53
2023/05/23 03:08:13;;;;;;;9.35;6.90;;;15.60;99.90;;;;;;5105796;28;20081;-55
2023/05/23 03:10:38;;;;;;;9.73;6.40;;;15.60;99.90;;;;;;5105995;28;20047;-61
2023/05/23 03:13:04;;;;;;;8.68;6.40;;;15.60;99.90;;;;;;5109587;28;20231;-59
2023/05/23 03:15:30;;;;;;;15.15;7.15;;;15.60;99.90;;;;;;5105225;28;20024;-52
2023/05/23 03:17:55;;;;;;;13.02;8.23;;;15.60;99.90;;;;;;5108099;28;20023;-55
2023/05/23 03:20:21;;;;;;;11.98;8.57;;;15.60;99.90;;;;;;5104888;28;20032;-59
2023/05/23 03:22:47;;;;;;;15.20;9.15;;;15.60;99.90;;;;;;5108932;28;20062;-59
2023/05/23 03:25:15;;;;;;;10.35;7.97;;;15.50;99.90;;;;;;5104233;28;20020;-58
2023/05/23 03:27:40;;;;;;;10.45;8.30;;;15.60;99.90;;;;;;5107576;28;20027;-58
2023/05/23 03:30:06;;;;;;;16.75;9.57;;;15.60;99.90;;;;;;5108142;28;20030;-54
2023/05/23 03:32:32;;;;;;;13.15;8.35;;;15.60;99.90;;;;;;5109994;28;20046;-53
2023/05/23 03:34:57;;;;;;;13.57;7.57;;;15.60;99.90;;;;;;5112028;28;20039;-57
2023/05/23 03:37:23;;;;;;;13.35;7.72;;;15.60;99.90;;;;;;5109631;28;20030;-57
2023/05/23 03:39:49;;;;;;;10.52;7.43;;;15.50;99.90;;;;;;5108882;28;20417;-56
2023/05/23 03:42:17;;;;;;;16.17;8.95;;;15.50;99.90;;;;;;5100805;28;20047;-58
2023/05/23 03:44:42;;;;;;;15.75;8.30;;;15.50;99.90;;;;;;5108311;28;20020;-54
2023/05/23 03:47:08;;;;;;;16.00;8.90;;;15.40;99.90;;;;;;5104099;28;20032;-58
2023/05/23 03:49:34;;;;;;;16.35;9.10;;;15.30;99.90;;;;;;5108997;28;20030;-57
2023/05/23 03:51:59;;;;;;;18.98;9.10;;;15.30;99.90;;;;;;5109920;28;20397;-59
2023/05/23 03:54:25;;;;;;;14.18;8.27;;;15.20;99.90;;;;;;5108731;28;20134;-59
2023/05/23 03:56:51;;;;;;;14.57;8.38;;;15.20;99.90;;;;;;5108491;28;20024;-59
2023/05/23 03:59:17;;;;;;;17.38;9.25;;;15.10;99.90;;;;;;5108566;28;20084;-60
2023/05/23 04:01:42;;;;;;;12.63;8.15;;;15.10;99.90;;;;;;5105940;28;20073;-57
2023/05/23 04:04:08;;;;;;;13.52;7.82;;;15.10;99.90;;;;;;5109837;28;20465;-60
2023/05/23 04:06:33;;;;;;;14.35;8.40;;;15.10;99.90;;;;;;5106922;28;20042;-53
2023/05/23 04:09:00;;;;;;;15.25;7.97;;;15.20;99.90;;;;;;5109854;28;20443;-58
2023/05/23 04:11:25;;;;;;;15.82;8.05;;;15.10;99.90;;;;;;5106428;28;20043;-58
2023/05/23 04:13:52;;;;;;;17.48;8.13;;;15.20;99.90;;;;;;5104699;28;20456;-52
2023/05/23 04:16:17;;;;;;;10.88;7.35;;;15.20;99.90;;;;;;5103958;28;20032;-60
2023/05/23 04:18:46;;;;;;;14.55;7.72;;;15.20;99.90;;;;;;5110553;28;20484;-58
2023/05/23 04:21:11;;;;;;;12.60;7.68;;;15.20;99.90;;;;;;5105350;28;20091;-59
2023/05/23 04:23:37;;;;;;;10.60;6.38;;;15.20;99.90;;;;;;5108130;27;20024;-55
2023/05/23 04:26:04;;;;;;;11.82;6.38;;;15.20;99.90;;;;;;5111424;27;20058;-56
2023/05/23 04:28:30;;;;;;;13.30;6.65;;;15.20;99.90;;;;;;5107470;28;20019;-56
2023/05/23 04:30:57;;;;;;;12.30;6.40;;;15.20;99.90;;;;;;5108914;28;20121;-55
2023/05/23 04:33:23;;;;;;;11.45;6.55;;;15.30;99.90;;;;;;5108317;28;20024;-57
2023/05/23 04:35:48;;;;;;;15.65;6.88;;;15.30;99.90;;;;;;5109887;28;20054;-57
2023/05/23 04:38:14;;;;;;;13.70;6.55;;;15.30;99.90;;;;;;5105965;28;20031;-55
2023/05/23 04:40:40;;;;;;;11.93;5.93;;;15.20;99.90;;;;;;5104909;28;20389;-59
2023/05/23 04:43:08;;;;;;;11.25;6.32;;;15.20;99.90;;;;;;5104914;28;20020;-54
2023/05/23 04:45:33;;;;;;;12.38;6.43;;;15.30;99.90;;;;;;5102434;28;20031;-59
2023/05/23 04:47:59;;;;;;;9.98;5.72;;;15.20;99.90;;;;;;5107935;28;20568;-54
2023/05/23 04:50:24;;;;;;;12.80;6.20;;;15.20;99.90;;;;;;5103090;28;20481;-57
2023/05/23 04:52:50;;;;;;;12.82;6.55;;;15.20;99.90;;;;;;5105397;28;20031;-58
2023/05/23 04:55:15;;;;;;;13.68;6.70;;;15.20;99.90;;;;;;5097916;28;20104;-59
2023/05/23 04:57:41;;;;;;;12.95;6.30;;;15.20;99.90;;;;;;5105050;28;20124;-59
2023/05/23 05:00:10;;;;;;;10.20;6.20;;;15.20;99.90;;;;;;5104797;28;20050;-57
2023/05/23 05:02:37;;;;;;;11.75;5.88;;;15.20;99.90;;;;;;5103014;28;20024;-57
2023/05/23 05:05:03;;;;;;;15.80;6.97;;;15.20;99.90;;;;;;5103855;28;20852;-59
2023/05/23 05:07:29;;;;;;;14.63;7.22;;;15.20;99.90;;;;;;5107266;28;20028;-54
2023/05/23 05:09:55;;;;;;;15.35;7.63;;;15.20;99.90;;;;;;5108679;28;20031;-59
2023/05/23 05:12:20;;;;;;;12.32;7.00;;;15.20;99.90;;;;;;5104782;28;20035;-59
2023/05/23 05:14:46;;;;;;;12.07;6.72;;;15.20;99.90;;;;;;5108309;28;20049;-60
2023/05/23 05:17:11;;;;;;;18.08;6.93;;;15.20;99.90;;;;;;5103469;28;20089;-59
2023/05/23 05:19:37;;;;;;;20.33;7.50;;;15.20;99.90;;;;;;5106296;28;20076;-60
2023/05/23 05:22:03;;;;;;;11.73;7.50;;;15.20;99.90;;;;;;5106665;28;20031;-59
2023/05/23 05:24:28;;;;;;;14.40;7.07;;;15.20;99.90;;;;;;5098953;28;20031;-56
2023/05/23 05:26:54;;;;;;;12.70;6.80;;;15.20;99.90;;;;;;5105514;28;20042;-60
2023/05/23 05:29:20;;;;;;;12.00;7.20;;;15.20;99.90;;;;;;5104399;28;20034;-60
2023/05/23 05:31:46;;;;;;;13.32;6.65;;;15.20;99.90;;;;;;5104486;28;20028;-59
2023/05/23 05:34:12;;;;;;;16.83;6.85;;;15.20;99.90;;;;;;5104183;28;20095;-55
2023/05/23 05:36:44;;;;;;;14.27;7.45;;;15.20;99.90;;;;;;5106636;28;20571;-57
2023/05/23 05:39:10;;;;;;;15.65;7.10;;;15.20;99.90;;;;;;5101306;28;20167;-56
2023/05/23 05:41:36;;;;;;;13.70;7.65;;;15.20;99.90;;;;;;5106994;28;20051;-56
2023/05/23 05:44:01;;;;;;;13.45;6.70;;;15.20;99.90;;;;;;5106924;28;20513;-57
2023/05/23 05:46:27;;;;;;;12.57;6.70;;;15.20;99.90;;;;;;5105379;28;20028;-59
2023/05/23 05:48:52;;;;;;;16.58;7.35;;;15.20;99.90;;;;;;5108958;28;20605;-57
2023/05/23 05:51:18;;;;;;;15.63;7.70;;;15.20;99.90;;;;;;5108773;28;20046;-56
2023/05/23 05:53:43;;;;;;;15.00;7.72;;;15.20;99.90;;;;;;5110264;28;20527;-57
2023/05/23 05:56:09;;;;;;;18.10;8.68;;;15.20;99.90;;;;;;5107959;28;20493;-52
2023/05/23 05:58:35;;;;;;;15.23;8.07;;;15.20;99.90;;;;;;5108654;28;20071;-58
2023/05/23 06:01:00;;;;;;;14.05;8.35;;;15.20;99.90;;;;;;5104417;28;20107;-57
2023/05/23 06:03:26;;;;;;;15.80;8.45;;;15.20;99.90;;;;;;5108722;28;20024;-58
2023/05/23 06:05:52;;;;;;;14.73;8.60;;;15.20;99.90;;;;;;5104827;28;20015;-57
2023/05/23 06:08:17;;;;;;;17.73;9.48;;;15.20;99.90;;;;;;5109336;28;20030;-58
2023/05/23 06:10:43;;;;;;;19.67;9.23;;;15.20;99.90;;;;;;5106446;28;20109;-51
2023/05/23 06:13:08;;;;;;;19.67;9.60;;;15.20;99.90;;;;;;5108679;28;20034;-58
2023/05/23 06:15:34;;;;;;;22.10;9.73;;;15.20;99.90;;;;;;5108594;28;20038;-59
2023/05/23 06:18:00;;;;;;;20.05;9.75;;;15.20;99.90;;;;;;5107871;28;20065;-59
2023/05/23 06:20:25;;;;;;;18.83;9.50;;;15.10;99.90;;;;;;5104541;28;20032;-58
2023/05/23 06:22:51;;;;;;;21.90;10.77;;;15.10;99.90;;;;;;5107915;28;20027;-56
2023/05/23 06:25:16;;;;;;;16.55;9.52;;;15.00;99.90;;;;;;5112698;28;20073;-55
2023/05/23 06:27:43;;;;;;;25.25;10.27;;;15.00;99.90;;;;;;5108979;28;20032;-57
2023/05/23 06:30:09;;;;;;;20.40;10.23;;;15.00;99.90;;;;;;5109952;28;20477;-53
2023/05/23 06:32:35;;;;;;;23.48;11.23;;;15.00;99.90;;;;;;5111394;28;20039;-54
2023/05/23 06:35:01;;;;;;;22.42;9.55;;;15.00;99.90;;;;;;5108720;28;20555;-57
2023/05/23 06:37:26;;;;;;;18.23;9.98;;;15.00;99.90;;;;;;5112070;28;20024;-58
2023/05/23 06:39:52;;;;;;;24.83;10.05;;;15.00;99.90;;;;;;5112047;28;20095;-59
2023/05/23 06:42:18;;;;;;;18.42;9.15;;;15.10;99.90;;;;;;5112201;28;20063;-58
2023/05/23 06:44:43;;;;;;;17.00;9.55;;;15.10;99.90;;;;;;5113551;28;20063;-59
2023/05/23 06:47:08;;;;;;;19.98;9.20;;;15.10;99.90;;;;;;5109996;28;20404;-58
2023/05/23 06:49:34;;;;;;;22.83;9.70;;;15.10;99.90;;;;;;5108374;28;20035;-56
2023/05/23 06:51:59;;;;;;;25.00;10.43;;;15.10;99.90;;;;;;5109793;28;20030;-58
2023/05/23 06:54:25;;;;;;;20.48;9.73;;;15.10;99.90;;;;;;5110934;28;20032;-57
2023/05/23 06:56:51;;;;;;;18.77;10.07;;;15.20;99.90;;;;;;5111702;28;20103;-58
2023/05/23 06:59:16;;;;;;;21.15;10.45;;;15.10;99.90;;;;;;5112476;28;20039;-58
2023/05/23 07:01:42;;;;;;;23.30;10.25;;;15.10;99.90;;;;;;5110379;28;20099;-59
2023/05/23 07:04:07;;;;;;;15.85;8.70;;;15.10;99.90;;;;;;5113682;28;20485;-57
2023/05/23 07:06:35;;;;;;;21.63;10.32;;;15.10;99.90;;;;;;5109868;28;20035;-58
2023/05/23 07:09:00;;;;;;;16.23;8.45;;;15.20;99.90;;;;;;5112666;28;20039;-58
2023/05/23 07:11:26;;;;;;;17.90;8.40;;;15.30;99.90;;;;;;5112636;28;20503;-60
2023/05/23 07:13:52;;;;;;;17.70;9.38;;;15.30;99.90;;;;;;5113358;28;20094;-59
2023/05/23 07:16:17;;;;;;;18.42;8.88;;;15.40;99.90;;;;;;5112070;28;20024;-59
2023/05/23 07:18:43;;;;;;;20.10;7.80;;;15.50;99.90;;;;;;5112352;28;20016;-57
2023/05/23 07:21:08;;;;;;;25.77;8.70;;;15.50;99.90;;;;;;5112347;28;20477;-57
2023/05/23 07:23:34;;;;;;;14.55;8.52;;;15.40;99.90;;;;;;5112724;28;20034;-59
2023/05/23 07:26:01;;;;;;;16.05;8.35;;;15.50;99.90;;;;;;5112960;28;20019;-59
2023/05/23 07:28:27;;;;;;;16.60;8.07;;;15.50;99.90;;;;;;5112048;28;20027;-60
2023/05/23 07:30:52;;;;;;;15.95;8.05;;;15.50;99.90;;;;;;5111226;28;20027;-60
2023/05/23 07:33:18;;;;;;;17.52;8.27;;;15.50;99.90;;;;;;5113229;28;20461;-58
2023/05/23 07:35:44;;;;;;;21.98;8.57;;;15.40;99.90;;;;;;5111675;28;20028;-58
2023/05/23 07:38:09;;;;;;;19.08;9.10;;;15.40;99.90;;;;;;5112376;28;20036;-56
2023/05/23 07:40:37;;;;;;;14.45;8.50;;;15.40;99.90;;;;;;5111719;28;20066;-60
2023/05/23 07:43:02;;;;;;;19.00;7.90;;;15.50;99.90;;;;;;5112773;28;20020;-60
2023/05/23 07:45:28;;;;;;;16.05;7.78;;;15.50;99.90;;;;;;5108501;28;20077;-60
2023/05/23 07:47:54;;;;;;;15.35;7.38;;;15.60;99.90;;;;;;5109763;28;20032;-60
2023/05/23 07:50:19;;;;;;;11.32;6.90;;;15.60;99.90;;;;;;5112932;28;20366;-58
2023/05/23 07:52:45;;;;;;;13.35;7.20;;;15.60;99.90;;;;;;5112049;28;20032;-52
2023/05/23 07:55:11;;;;;;;12.88;7.35;;;15.60;99.90;;;;;;5111939;28;20485;-56
2023/05/23 07:57:36;;;;;;;15.55;7.75;;;15.60;99.90;;;;;;5111790;28;20050;-55
2023/05/23 08:00:03;;;;;;;15.70;7.78;;;15.60;99.90;;;;;;5111583;28;20043;-53
2023/05/23 08:02:30;;;;;;;16.27;6.93;;;15.50;99.90;;;;;;5110636;28;20474;-59
2023/05/23 08:04:55;;;;;;;19.50;7.25;;;15.60;99.90;;;;;;5112232;28;20059;-60
2023/05/23 08:07:21;;;;;;;14.82;7.43;;;15.60;99.90;;;;;;5112784;28;20050;-60
2023/05/23 08:09:47;;;;;;;16.33;7.60;;;15.60;99.90;;;;;;5111483;28;20032;-59
2023/05/23 08:12:12;;;;;;;18.45;7.07;;;15.60;99.90;;;;;;5110127;28;20024;-57
2023/05/23 08:14:38;;;;;;;17.02;7.70;;;15.70;99.90;;;;;;5108011;28;20020;-60
2023/05/23 08:17:04;;;;;;;12.20;7.25;;;15.60;99.90;;;;;;5111355;28;20020;-58
2023/05/23 08:19:29;;;;;;;16.38;6.93;;;15.60;99.90;;;;;;5110750;28;20027;-58
2023/05/23 08:21:55;;;;;;;14.18;6.95;;;15.50;99.90;;;;;;5111382;28;20040;-56
2023/05/23 08:24:21;;;;;;;18.83;7.93;;;15.60;99.90;;;;;;5112321;28;20119;-58
2023/05/23 08:26:46;;;;;;;14.13;7.00;;;15.60;99.90;;;;;;5111747;28;20038;-59
2023/05/23 08:29:13;;;;;;;18.98;7.35;;;15.50;99.90;;;;;;5109667;28;20024;-59
2023/05/23 08:31:38;;;;;;;21.77;7.72;;;15.50;99.90;;;;;;5111502;28;20036;-59
2023/05/23 08:34:04;;;;;;;17.27;8.00;;;15.50;99.90;;;;;;5110467;28;20051;-58
2023/05/23 08:36:35;;;;;;;25.00;8.30;;;15.50;99.90;;;;;;5111497;28;20071;-58
2023/05/23 08:39:01;;;;;;;15.90;8.23;;;15.50;99.90;;;;;;5111820;27;20035;-53
2023/05/23 08:41:26;;;;;;;17.45;8.25;;;15.50;99.90;;;;;;5111751;28;20024;-56
2023/05/23 08:43:52;;;;;;;19.85;8.05;;;15.50;99.90;;;;;;5111673;28;20028;-56
2023/05/23 08:46:18;;;;;;;18.90;9.65;;;15.50;99.90;;;;;;5110554;28;20061;-56
2023/05/23 08:48:53;;;;;;;18.27;9.45;;;15.40;99.90;;;;;;5109899;28;20028;-57
2023/05/23 08:51:21;;;;;;;17.92;10.23;;;15.40;99.90;;;;;;5110864;28;20011;-56
2023/05/23 08:53:47;;;;;;;18.27;9.52;;;15.40;99.90;;;;;;5107165;28;20020;-54
2023/05/23 08:56:15;;;;;;;22.60;9.93;;;15.40;99.90;;;;;;5107731;28;20430;-56
2023/05/23 08:58:41;;;;;;;20.60;9.02;;;15.40;99.90;;;;;;5111693;28;20035;-56
2023/05/23 09:01:12;;;;;;;26.30;9.63;;;15.40;99.90;;;;;;5110653;28;20027;-58
2023/05/23 09:03:38;;;;;;;18.38;9.02;;;15.40;99.90;;;;;;5111808;28;20099;-55
2023/05/23 09:06:10;;;;;;;23.30;10.10;;;15.30;99.90;;;;;;5110587;28;20409;-58
2023/05/23 09:08:36;;;;;;;27.30;10.18;;;15.30;99.90;;;;;;5111320;28;20102;-59
2023/05/23 09:11:04;;;;;;;27.83;11.25;;;15.30;99.90;;;;;;5110557;28;20618;-56
2023/05/23 09:13:30;;;;;;;25.10;10.63;;;15.30;99.90;;;;;;5111523;28;20023;-56
2023/05/23 09:16:03;;;;;;;25.85;10.43;;;15.40;99.90;;;;;;5110958;28;20024;-54
2023/05/23 09:18:40;;;;;;;21.77;9.48;;;15.40;99.90;;;;;;5111125;28;20080;-58
2023/05/23 09:21:10;;;;;;;27.17;11.85;;;15.40;99.90;;;;;;5108933;28;20034;-56
2023/05/23 09:23:38;;;;;;;26.73;10.30;;;15.30;99.90;;;;;;5109104;28;20042;-58
2023/05/23 09:26:06;;;;;;;28.45;10.68;;;15.20;99.90;;;;;;5109012;28;20028;-58
2023/05/23 09:28:36;;;;;;;27.35;10.23;;;15.20;99.90;;;;;;5107016;28;20110;-54
2023/05/23 09:31:05;;;;;;;25.70;10.48;;;15.10;99.90;;;;;;5110457;28;20043;-57
2023/05/23 09:33:48;;;;;;;26.10;9.32;;;15.00;99.90;;;;;;5111207;28;20126;-53
2023/05/23 09:36:14;;;;;;;32.33;10.55;;;14.90;99.90;;;;;;5108338;28;20069;-53
2023/05/23 09:38:41;;;;;;;23.77;10.43;;;14.80;99.90;;;;;;5110188;28;20027;-55
2023/05/23 09:41:07;;;;;;;29.63;10.63;;;14.70;99.90;;;;;;5110367;28;20032;-55
2023/05/23 09:43:33;;;;;;;23.70;11.30;;;14.60;99.90;;;;;;5111010;28;20031;-55
2023/05/23 09:46:11;;;;;;;35.92;10.95;;;14.60;99.90;;;;;;5109216;28;20031;-54
2023/05/23 09:48:37;;;;;;;23.63;11.15;;;14.60;99.90;;;;;;5109765;28;20027;-53
2023/05/23 09:51:12;;;;;;;30.98;10.55;;;14.50;99.90;;;;;;5110184;28;20030;-55
2023/05/23 09:53:37;;;;;;;28.63;9.45;;;14.50;99.90;;;;;;5109950;28;20020;-59
2023/05/23 09:56:04;;;;;;;26.05;9.90;;;14.50;99.90;;;;;;5110633;28;20532;-56
2023/05/23 09:58:31;;;;;;;23.02;10.15;;;14.50;99.90;;;;;;5113578;28;20027;-57
2023/05/23 10:01:02;;;;;;;25.38;10.20;;;14.50;99.90;;;;;;5107044;28;20522;-57
2023/05/23 10:03:34;;;;;;;25.98;10.88;;;14.40;99.90;;;;;;5113568;28;20040;-52
2023/05/23 10:06:09;;;;;;;24.17;9.02;;;14.40;99.90;;;;;;5108703;28;20024;-57
2023/05/23 10:08:49;;;;;;;22.02;9.52;;;14.30;99.90;;;;;;5114561;28;20035;-58
2023/05/23 10:11:17;;;;;;;24.13;9.82;;;14.40;99.90;;;;;;5114194;28;20024;-57
2023/05/23 10:13:52;;;;;;;22.38;10.20;;;14.50;99.90;;;;;;5115053;28;20424;-58
2023/05/23 10:16:37;;;;;;;23.58;10.13;;;14.70;99.90;;;;;;5110161;28;20016;-56
2023/05/23 10:19:21;;;;;;;20.70;9.10;;;14.80;99.90;;;;;;5114003;28;20019;-60
2023/05/23 10:21:55;;;;;;;18.90;8.52;;;14.90;99.90;;;;;;5113261;28;20020;-58
2023/05/23 10:24:21;;;;;;;24.90;8.82;;;15.00;99.90;;;;;;5107980;28;20099;-58
2023/05/23 10:26:47;;;;;;;25.80;8.82;;;15.10;99.90;;;;;;5112915;28;20065;-57
2023/05/23 10:29:13;;;;;;;24.35;8.20;;;15.30;99.90;;;;;;5114072;28;20035;-58
2023/05/23 10:31:39;;;;;;;20.92;8.35;;;15.40;99.90;;;;;;5114306;28;20024;-55
2023/05/23 10:34:28;;;;;;;20.90;8.07;;;15.30;99.90;;;;;;5114301;28;20035;-60
2023/05/23 10:37:01;;;;;;;22.20;8.00;;;15.30;99.90;;;;;;5074020;28;20460;-59
2023/05/23 10:39:52;;;;;;;14.75;7.25;;;15.80;99.90;;;;;;5109166;28;20047;-54
2023/05/23 10:42:33;;;;;;;16.00;6.28;;;15.70;99.90;;;;;;5111132;28;20028;-58
2023/05/23 10:45:44;;;;;;;22.13;6.57;;;15.50;99.90;;;;;;5112212;28;20046;-57
2023/05/23 10:48:43;;;;;;;18.70;6.53;;;15.50;99.90;;;;;;5030702;28;20463;-57
2023/05/23 10:51:10;;;;;;;21.58;6.88;;;15.40;99.90;;;;;;5112736;28;20054;-58
2023/05/23 10:53:38;;;;;;;17.15;7.28;;;15.30;99.90;;;;;;5110534;28;20425;-55
2023/05/23 10:56:08;;;;;;;13.20;6.50;;;15.20;99.90;;;;;;5114167;28;20457;-56
2023/05/23 10:58:35;;;;;;;20.67;7.03;;;15.20;99.90;;;;;;5111651;28;20028;-55
2023/05/23 11:01:08;;;;;;;18.85;6.43;;;15.20;99.90;;;;;;5110775;28;20031;-54
2023/05/23 11:03:52;;;;;;;16.77;6.60;;;15.20;99.90;;;;;;5110889;28;20055;-56
2023/05/23 11:06:37;;;;;;;16.10;7.35;;;15.20;99.90;;;;;;5104580;28;20023;-56
2023/05/23 11:09:05;;;;;;;;;;;15.00;99.90;;;;;;5100527;28;20054;-56
2023/05/23 11:11:52;;;;;;;14.35;6.45;;;15.10;99.90;;;;;;5107426;28;20396;-55
2023/05/23 11:14:39;;;;;;;15.05;6.70;;;15.10;99.90;;;;;;5105378;28;20068;-56
2023/05/23 11:17:10;;;;;;;21.10;7.38;;;15.30;99.90;;;;;;5098238;28;20143;-54
2023/05/23 11:19:36;;;;;;;19.45;6.43;;;15.20;99.90;;;;;;5108934;28;20028;-56
2023/05/23 11:22:04;;;;;;;19.83;7.80;;;15.10;99.90;;;;;;5107552;28;20486;-53
2023/05/23 11:24:50;;;;;;;16.40;6.80;;;15.00;99.90;;;;;;5109965;27;20020;-58
2023/05/23 11:27:18;;;;;;;17.38;7.13;;;15.00;99.90;;;;;;5104662;28;20019;-56
2023/05/23 11:29:56;;;;;;;16.00;7.25;;;15.00;99.90;;;;;;5106751;28;20028;-53
2023/05/23 11:32:22;;;;;;;15.73;6.10;;;15.00;99.90;;;;;;5107268;28;20016;-56
2023/05/23 11:34:48;;;;;;;18.38;7.07;;;15.00;99.90;;;;;;5110301;28;20051;-55
2023/05/23 11:37:14;;;;;;;21.15;7.88;;;15.00;99.90;;;;;;5109800;28;20046;-55
2023/05/23 11:39:40;;;;;;;14.25;7.03;;;14.90;99.90;;;;;;5108673;28;20535;-55
2023/05/23 11:42:05;;;;;;;18.73;6.65;;;15.00;99.90;;;;;;5105176;28;20034;-55
2023/05/23 11:44:31;;;;;;;15.43;6.85;;;15.00;99.90;;;;;;5107908;28;20027;-54
2023/05/23 11:47:05;;;;;;;23.30;8.15;;;14.90;99.90;;;;;;5105420;28;20019;-57
2023/05/23 11:49:34;;;;;;;20.92;7.18;;;15.00;99.90;;;;;;5105803;28;20059;-57
2023/05/23 11:52:01;;;;;;;14.88;8.20;;;15.10;99.90;;;;;;5107947;28;20030;-58
2023/05/23 11:54:27;;;;;;;15.00;7.07;;;15.30;99.90;;;;;;5108961;28;20016;-59
2023/05/23 11:56:54;;;;;;;19.05;8.27;;;15.40;99.90;;;;;;5109721;28;20024;-56
2023/05/23 11:59:25;;;;;;;17.10;7.75;;;15.60;99.90;;;;;;5099826;28;20016;-59
2023/05/23 12:01:51;;;;;;;17.13;6.82;;;15.80;99.90;;;;;;5108332;27;20072;-55
2023/05/23 12:04:16;;;;;;;14.10;6.72;;;16.20;99.90;;;;;;5104564;28;20054;-58
2023/05/23 12:06:47;;;;;;;14.30;7.70;;;16.40;99.90;;;;;;5108812;28;20059;-56
2023/05/23 12:09:13;;;;;;;15.00;7.43;;;16.80;99.90;;;;;;5100912;28;20031;-58
2023/05/23 12:11:40;;;;;;;19.05;7.82;;;17.10;99.90;;;;;;5110237;28;20036;-55
2023/05/23 12:14:06;;;;;;;16.83;8.20;;;17.20;99.90;;;;;;5108588;28;20027;-56
2023/05/23 12:16:34;;;;;;;17.63;7.93;;;16.80;99.90;;;;;;5110640;28;20011;-58
2023/05/23 12:19:01;;;;;;;15.75;7.22;;;16.60;99.90;;;;;;5107819;28;20039;-58
2023/05/23 12:21:39;;;;;;;20.77;6.18;;;16.70;99.90;;;;;;5108929;28;20026;-59
2023/05/23 12:24:22;;;;;;;16.10;6.63;;;16.80;99.90;;;;;;5106622;28;20023;-59
2023/05/23 12:26:50;;;;;;;14.57;7.63;;;17.00;99.90;;;;;;5107828;28;20012;-55
2023/05/23 12:29:21;;;;;;;20.08;9.70;;;17.20;99.90;;;;;;5111105;28;20027;-58
2023/05/23 12:31:50;;;;;;;16.05;8.65;;;17.10;99.90;;;;;;5110483;28;20042;-59
2023/05/23 12:34:16;;;;;;;16.02;6.95;;;17.00;99.90;;;;;;5107078;28;20393;-58
2023/05/23 12:36:43;;;;;;;13.52;6.50;;;17.00;99.90;;;;;;5111364;27;20469;-56
2023/05/23 12:39:09;;;;;;;14.18;5.47;;;16.90;99.90;;;;;;5104301;28;20034;-59